createdAt,value
2023-03-02T00:01:08.431Z,11.97
2023-03-02T00:03:39.719Z,13.30
2023-03-02T00:06:09.662Z,13.37
2023-03-02T00:08:38.337Z,12.83
2023-03-02T00:11:05.309Z,12.07
2023-03-02T00:13:35.411Z,13.47
2023-03-02T00:16:02.381Z,13.30
2023-03-02T00:18:29.579Z,13.70
2023-03-02T00:20:56.471Z,13.73
2023-03-02T00:23:24.742Z,14.10
2023-03-02T00:25:51.714Z,14.97
2023-03-02T00:28:18.676Z,14.67
2023-03-02T00:30:45.580Z,14.83
2023-03-02T00:33:12.462Z,15.47
2023-03-02T00:35:40.434Z,15.20
2023-03-02T00:38:08.242Z,16.83
2023-03-02T00:40:36.837Z,14.53
2023-03-02T00:43:04.140Z,15.73
2023-03-02T00:45:31.145Z,14.57
2023-03-02T00:47:58.043Z,17.23
2023-03-02T00:50:25.020Z,16.77
2023-03-02T00:52:52.154Z,15.80
2023-03-02T00:55:19.437Z,17.17
2023-03-02T00:57:55.112Z,14.97
2023-03-02T01:00:24.252Z,15.57
2023-03-02T01:02:51.268Z,16.03
2023-03-02T01:05:18.475Z,16.60
2023-03-02T01:07:45.461Z,15.53
2023-03-02T01:10:13.059Z,15.67
2023-03-02T01:12:40.448Z,16.50
2023-03-02T01:15:11.036Z,15.07
2023-03-02T01:17:39.625Z,15.10
2023-03-02T01:20:08.871Z,14.97
2023-03-02T01:22:35.773Z,15.23
2023-03-02T01:25:03.424Z,13.63
2023-03-02T01:27:30.298Z,14.63
2023-03-02T01:29:57.321Z,15.80
2023-03-02T01:32:25.735Z,15.03
2023-03-02T01:34:52.717Z,14.30
2023-03-02T01:37:20.751Z,15.20
2023-03-02T01:39:47.738Z,14.40
2023-03-02T01:42:14.993Z,14.27
2023-03-02T01:44:45.065Z,15.10
2023-03-02T01:47:17.849Z,15.07
2023-03-02T01:49:52.933Z,14.63
2023-03-02T01:52:20.148Z,16.10
2023-03-02T01:54:50.372Z,14.63
2023-03-02T01:57:23.028Z,15.13
2023-03-02T01:59:59.577Z,14.40
2023-03-02T02:02:27.559Z,15.77
2023-03-02T02:04:57.282Z,16.47
2023-03-02T02:07:24.295Z,13.87
2023-03-02T02:09:54.176Z,13.70
2023-03-02T02:12:23.449Z,14.73
2023-03-02T02:14:51.460Z,13.63
2023-03-02T02:17:19.734Z,13.57
2023-03-02T02:20:06.359Z,13.33
2023-03-02T02:22:49.610Z,14.97
2023-03-02T02:25:34.762Z,13.97
2023-03-02T02:28:08.461Z,14.13
2023-03-02T02:30:38.004Z,13.73
2023-03-02T02:33:06.707Z,13.07
2023-03-02T02:35:38.457Z,14.40
2023-03-02T02:38:08.497Z,13.17
2023-03-02T02:40:46.408Z,13.17
2023-03-02T02:43:20.022Z,13.53
2023-03-02T02:45:50.953Z,14.67
2023-03-02T02:48:23.126Z,14.23
2023-03-02T02:50:59.941Z,13.63
2023-03-02T02:53:34.933Z,13.93
2023-03-02T02:56:04.278Z,14.13
2023-03-02T02:58:40.033Z,13.60
2023-03-02T03:01:07.863Z,13.10
2023-03-02T03:03:39.163Z,13.13
2023-03-02T03:06:09.313Z,14.07
2023-03-02T03:08:57.878Z,13.70
2023-03-02T03:11:28.739Z,12.90
2023-03-02T03:14:08.840Z,12.60
2023-03-02T03:16:39.245Z,13.70
2023-03-02T03:19:15.687Z,13.63
2023-03-02T03:21:42.891Z,13.93
2023-03-02T03:24:10.195Z,14.23
2023-03-02T03:26:37.278Z,12.77
2023-03-02T03:29:06.141Z,13.40
2023-03-02T03:31:33.802Z,13.70
2023-03-02T03:34:01.772Z,12.60
2023-03-02T03:36:31.248Z,13.10
2023-03-02T03:38:59.306Z,12.73
2023-03-02T03:41:26.846Z,14.03
2023-03-02T03:43:53.917Z,14.13
2023-03-02T03:46:22.487Z,13.20
2023-03-02T03:48:49.892Z,13.50
2023-03-02T03:51:17.581Z,11.83
2023-03-02T03:53:44.607Z,13.80
2023-03-02T03:56:12.254Z,14.40
2023-03-02T03:58:39.549Z,14.33
2023-03-02T04:01:06.650Z,13.97
2023-03-02T04:03:34.899Z,13.80
2023-03-02T04:06:01.876Z,12.83
2023-03-02T04:08:28.814Z,14.57
2023-03-02T04:10:55.735Z,14.57
2023-03-02T04:13:22.675Z,12.33
2023-03-02T04:15:49.643Z,13.70
2023-03-02T04:18:16.574Z,14.83
2023-03-02T04:20:44.810Z,14.13
2023-03-02T04:23:12.371Z,13.83
2023-03-02T04:25:39.399Z,13.20
2023-03-02T04:28:06.435Z,13.13
2023-03-02T04:30:33.397Z,12.80
2023-03-02T04:33:00.458Z,13.60
2023-03-02T04:35:27.489Z,13.47
2023-03-02T04:37:56.088Z,15.07
2023-03-02T04:40:23.359Z,15.43
2023-03-02T04:42:50.370Z,14.47
2023-03-02T04:45:17.905Z,12.40
2023-03-02T04:47:44.848Z,13.23
2023-03-02T04:50:14.702Z,14.17
2023-03-02T04:52:42.090Z,13.97
2023-03-02T04:55:19.986Z,14.83
2023-03-02T04:57:47.029Z,13.80
2023-03-02T05:00:16.321Z,13.40
2023-03-02T05:02:43.354Z,12.67
2023-03-02T05:05:17.745Z,13.17
2023-03-02T05:07:45.543Z,13.00
2023-03-02T05:10:15.621Z,13.10
2023-03-02T05:12:55.193Z,13.10
2023-03-02T05:15:23.474Z,13.53
2023-03-02T05:17:50.562Z,12.60
2023-03-02T05:20:19.278Z,13.30
2023-03-02T05:22:46.747Z,12.13
2023-03-02T05:25:14.942Z,13.00
2023-03-02T05:27:41.845Z,13.77
2023-03-02T05:30:10.755Z,14.33
2023-03-02T05:32:37.686Z,13.33
2023-03-02T05:35:05.804Z,12.90
2023-03-02T05:37:33.190Z,12.87
2023-03-02T05:40:00.694Z,13.47
2023-03-02T05:42:28.944Z,12.77
2023-03-02T05:44:55.982Z,12.00
2023-03-02T05:47:22.880Z,11.60
2023-03-02T05:49:49.783Z,12.13
2023-03-02T05:52:16.646Z,14.27
2023-03-02T05:54:43.507Z,13.17
2023-03-02T05:57:10.382Z,12.03
2023-03-02T05:59:38.593Z,13.73
2023-03-02T06:02:05.591Z,12.50
2023-03-02T06:04:32.524Z,13.17
2023-03-02T06:06:59.494Z,12.00
2023-03-02T06:09:27.376Z,12.83
2023-03-02T06:11:54.333Z,12.80
2023-03-02T06:14:21.251Z,12.57
2023-03-02T06:16:49.530Z,12.60
2023-03-02T06:19:16.579Z,13.93
2023-03-02T06:21:43.476Z,12.47
2023-03-02T06:24:10.353Z,13.20
2023-03-02T06:26:37.251Z,12.23
2023-03-02T06:29:05.511Z,12.57
2023-03-02T06:31:32.612Z,13.93
2023-03-02T06:34:01.212Z,12.87
2023-03-02T06:36:28.626Z,12.23
2023-03-02T06:38:55.550Z,13.23
2023-03-02T06:41:22.735Z,12.00
2023-03-02T06:43:49.696Z,13.87
2023-03-02T06:46:16.663Z,13.50
2023-03-02T06:48:43.646Z,16.13
2023-03-02T06:51:12.611Z,17.43
2023-03-02T06:53:39.587Z,16.17
2023-03-02T06:56:07.727Z,12.57
2023-03-02T06:58:35.127Z,12.40
2023-03-02T07:01:02.170Z,12.87
2023-03-02T07:03:29.245Z,13.27
2023-03-02T07:05:56.295Z,12.40
2023-03-02T07:08:24.605Z,12.23
2023-03-02T07:10:51.551Z,13.33
2023-03-02T07:13:18.594Z,12.87
2023-03-02T07:15:45.582Z,12.30
2023-03-02T07:18:12.718Z,11.97
2023-03-02T07:20:39.664Z,11.73
2023-03-02T07:23:06.937Z,15.40
2023-03-02T07:25:36.910Z,12.33
2023-03-02T07:28:04.547Z,12.10
2023-03-02T07:30:31.659Z,11.83
2023-03-02T07:32:58.618Z,12.73
2023-03-02T07:35:25.610Z,12.73
2023-03-02T07:37:52.852Z,11.40
2023-03-02T07:40:19.910Z,12.80
2023-03-02T07:42:48.215Z,11.60
2023-03-02T07:45:16.954Z,11.53
2023-03-02T07:47:44.008Z,11.33
2023-03-02T07:50:11.880Z,11.77
2023-03-02T07:52:39.532Z,11.30
2023-03-02T07:55:07.409Z,12.07
2023-03-02T07:57:34.675Z,11.73
2023-03-02T08:00:04.693Z,14.10
2023-03-02T08:02:33.437Z,10.90
2023-03-02T08:05:00.426Z,11.17
2023-03-02T08:07:27.396Z,11.13
2023-03-02T08:09:54.407Z,10.13
2023-03-02T08:12:21.411Z,11.33
2023-03-02T08:14:48.538Z,10.97
2023-03-02T08:17:16.764Z,11.50
2023-03-02T08:19:43.922Z,12.27
2023-03-02T08:22:10.946Z,11.93
2023-03-02T08:24:38.032Z,14.33
2023-03-02T08:27:05.141Z,14.73
2023-03-02T08:29:32.293Z,13.93
2023-03-02T08:31:59.944Z,11.53
2023-03-02T08:34:28.279Z,11.03
2023-03-02T08:36:56.823Z,11.10
2023-03-02T08:39:24.235Z,10.73
2023-03-02T08:41:51.680Z,10.27
2023-03-02T08:44:20.875Z,11.03
2023-03-02T08:46:48.871Z,10.97
2023-03-02T08:49:15.936Z,11.87
2023-03-02T08:51:45.497Z,11.53
2023-03-02T08:54:12.991Z,11.97
2023-03-02T08:56:41.429Z,11.73
2023-03-02T08:59:13.398Z,11.03
2023-03-02T09:01:42.637Z,12.67
2023-03-02T09:04:11.237Z,10.37
2023-03-02T09:06:41.636Z,9.87
2023-03-02T09:09:12.542Z,11.50
2023-03-02T09:11:42.115Z,13.73
2023-03-02T09:14:09.504Z,15.20
2023-03-02T09:16:36.550Z,10.70
2023-03-02T09:19:04.332Z,11.63
2023-03-02T09:21:31.652Z,10.93
2023-03-02T09:23:59.408Z,13.30
2023-03-02T09:26:28.095Z,10.93
2023-03-02T09:28:55.464Z,10.60
2023-03-02T09:31:23.049Z,10.97
2023-03-02T09:33:50.120Z,10.17
2023-03-02T09:36:21.925Z,10.90
2023-03-02T09:38:49.413Z,11.93
2023-03-02T09:41:42.594Z,12.07
2023-03-02T09:44:41.529Z,11.03
2023-03-02T09:47:34.561Z,11.17
2023-03-02T09:50:25.297Z,10.97
2023-03-02T09:53:13.568Z,11.90
2023-03-02T09:55:40.521Z,11.90
2023-03-02T09:58:17.732Z,11.50
2023-03-02T10:00:46.627Z,11.90
2023-03-02T10:03:20.253Z,15.63
2023-03-02T10:05:50.446Z,14.20
2023-03-02T10:08:20.991Z,12.97
2023-03-02T10:10:59.694Z,14.43
2023-03-02T10:13:36.050Z,13.17
2023-03-02T10:16:17.049Z,12.63
2023-03-02T10:18:49.230Z,11.57
2023-03-02T10:21:24.909Z,12.07
2023-03-02T10:24:02.281Z,10.67
2023-03-02T10:26:41.551Z,12.30
2023-03-02T10:29:32.811Z,11.90
2023-03-02T10:32:13.827Z,11.90
2023-03-02T10:34:40.926Z,11.70
2023-03-02T10:37:14.701Z,9.47
2023-03-02T10:39:41.995Z,12.20
2023-03-02T10:42:17.853Z,13.77
2023-03-02T10:44:50.807Z,13.33
2023-03-02T10:47:24.267Z,11.30
2023-03-02T10:49:52.550Z,12.13
2023-03-02T10:52:22.402Z,11.87
2023-03-02T10:54:49.914Z,12.43
2023-03-02T10:57:36.887Z,12.43
2023-03-02T11:00:23.130Z,12.97
2023-03-02T11:02:59.062Z,12.50
2023-03-02T11:05:33.238Z,16.90
2023-03-02T11:08:03.711Z,20.00
2023-03-02T11:10:34.380Z,18.00
2023-03-02T11:13:03.557Z,13.17
2023-03-02T11:15:44.618Z,12.63
2023-03-02T11:18:25.008Z,11.47
2023-03-02T11:20:57.400Z,12.80
2023-03-02T11:23:36.734Z,11.90
2023-03-02T11:26:14.727Z,13.00
2023-03-02T11:28:49.107Z,12.43
2023-03-02T11:31:29.670Z,12.70
2023-03-02T11:34:20.431Z,13.40
2023-03-02T11:37:03.537Z,12.50
2023-03-02T11:39:56.974Z,12.33
2023-03-02T11:42:31.039Z,12.07
2023-03-02T11:45:14.034Z,11.57
2023-03-02T11:47:54.287Z,12.40
2023-03-02T11:50:26.115Z,10.40
2023-03-02T11:52:59.279Z,9.67
2023-03-02T11:55:31.506Z,10.57
2023-03-02T11:58:03.209Z,11.33
2023-03-02T12:00:35.754Z,11.00
2023-03-02T12:03:06.880Z,12.70
2023-03-02T12:05:37.359Z,13.40
2023-03-02T12:08:08.171Z,12.20
2023-03-02T12:10:39.944Z,15.07
2023-03-02T12:13:17.498Z,12.30
2023-03-02T12:15:47.646Z,10.53
2023-03-02T12:18:44.720Z,10.93
2023-03-02T12:21:18.146Z,16.87
2023-03-02T12:24:04.053Z,14.23
2023-03-02T12:26:36.490Z,17.07
2023-03-02T12:29:22.523Z,13.23
2023-03-02T12:31:52.920Z,14.67
2023-03-02T12:34:36.459Z,15.33
2023-03-02T12:37:14.360Z,12.63
2023-03-02T12:40:17.156Z,10.67
2023-03-02T12:42:59.418Z,9.50
2023-03-02T12:45:46.207Z,9.57
2023-03-02T12:48:30.216Z,8.80
2023-03-02T12:51:02.928Z,10.87
2023-03-02T12:53:30.321Z,11.50
2023-03-02T12:55:57.655Z,9.77
2023-03-02T12:58:28.105Z,10.67
2023-03-02T13:00:59.043Z,13.60
2023-03-02T13:03:30.210Z,13.10
2023-03-02T13:06:14.924Z,25.07
2023-03-02T13:08:45.568Z,16.80
2023-03-02T13:11:12.967Z,13.00
2023-03-02T13:13:43.167Z,13.83
2023-03-02T13:16:22.822Z,12.47
2023-03-02T13:18:56.679Z,13.23
2023-03-02T13:21:32.904Z,15.90
2023-03-02T13:24:00.887Z,13.63
2023-03-02T13:26:31.601Z,12.67
2023-03-02T13:29:05.622Z,12.57
2023-03-02T13:31:34.403Z,11.33
2023-03-02T13:34:01.757Z,11.33
2023-03-02T13:36:37.301Z,10.83
2023-03-02T13:39:08.946Z,10.10
2023-03-02T13:41:37.540Z,8.90
2023-03-02T13:44:19.701Z,9.23
2023-03-02T13:46:47.805Z,14.00
2023-03-02T13:49:27.713Z,11.37
2023-03-02T13:52:07.072Z,10.77
2023-03-02T13:54:37.723Z,9.27
2023-03-02T13:57:06.483Z,10.30
2023-03-02T13:59:36.517Z,9.33
2023-03-02T14:02:03.797Z,8.57
2023-03-02T14:04:30.805Z,8.97
2023-03-02T14:06:59.346Z,9.17
2023-03-02T14:09:27.246Z,9.53
2023-03-02T14:11:56.930Z,9.67
2023-03-02T14:14:27.760Z,9.50
2023-03-02T14:16:54.991Z,13.50
2023-03-02T14:19:21.947Z,10.90
2023-03-02T14:21:48.936Z,10.87
2023-03-02T14:24:17.220Z,9.60
2023-03-02T14:26:47.751Z,9.67
2023-03-02T14:29:23.050Z,9.67
2023-03-02T14:31:50.401Z,9.20
2023-03-02T14:34:21.452Z,12.03
2023-03-02T14:36:54.434Z,10.00
2023-03-02T14:39:30.328Z,11.00
2023-03-02T14:41:57.460Z,10.27
2023-03-02T14:44:24.579Z,10.00
2023-03-02T14:46:52.803Z,10.27
2023-03-02T14:49:20.343Z,9.87
2023-03-02T14:51:57.386Z,9.70
2023-03-02T14:54:26.676Z,10.40
2023-03-02T14:56:54.038Z,9.37
2023-03-02T14:59:21.095Z,9.80
2023-03-02T15:01:48.052Z,9.27
2023-03-02T15:04:15.003Z,9.87
2023-03-02T15:06:43.728Z,10.47
2023-03-02T15:09:11.347Z,8.93
2023-03-02T15:11:39.781Z,10.23
2023-03-02T15:14:07.717Z,10.63
2023-03-02T15:16:34.844Z,10.00
2023-03-02T15:19:01.857Z,11.13
2023-03-02T15:21:28.804Z,9.53
2023-03-02T15:23:55.780Z,10.23
2023-03-02T15:26:22.743Z,10.50
2023-03-02T15:28:52.125Z,15.83
2023-03-02T15:31:19.463Z,9.90
2023-03-02T15:33:46.708Z,9.90
2023-03-02T15:36:14.456Z,10.33
2023-03-02T15:38:53.070Z,10.80
2023-03-02T15:41:20.100Z,10.97
2023-03-02T15:43:52.165Z,10.83
2023-03-02T15:46:19.592Z,12.00
2023-03-02T15:48:46.564Z,11.33
2023-03-02T15:51:14.082Z,11.13
2023-03-02T15:53:41.034Z,11.43
2023-03-02T15:56:10.732Z,11.70
2023-03-02T15:58:37.950Z,11.87
2023-03-02T16:01:10.926Z,11.83
2023-03-02T16:03:38.180Z,12.37
2023-03-02T16:06:07.175Z,12.70
2023-03-02T16:08:34.502Z,11.90
2023-03-02T16:11:05.637Z,10.97
2023-03-02T16:13:33.483Z,12.37
2023-03-02T16:16:01.488Z,13.83
2023-03-02T16:18:30.509Z,22.73
2023-03-02T16:20:57.589Z,14.00
2023-03-02T16:23:24.790Z,12.90
2023-03-02T16:25:52.240Z,12.37
2023-03-02T16:28:19.919Z,13.20
2023-03-02T16:30:52.326Z,13.50
2023-03-02T16:33:19.472Z,12.90
2023-03-02T16:35:49.353Z,14.03
2023-03-02T16:38:17.269Z,11.93
2023-03-02T16:40:44.324Z,13.50
2023-03-02T16:43:11.262Z,13.20
2023-03-02T16:45:38.569Z,13.53
2023-03-02T16:48:06.853Z,14.30
2023-03-02T16:50:33.837Z,20.63
2023-03-02T16:53:02.694Z,13.73
2023-03-02T16:55:30.091Z,14.97
2023-03-02T16:57:57.171Z,11.90
2023-03-02T17:00:25.309Z,13.70
2023-03-02T17:02:53.957Z,13.93
2023-03-02T17:05:21.742Z,15.43
2023-03-02T17:07:49.527Z,12.83
2023-03-02T17:10:21.625Z,13.27
2023-03-02T17:12:48.852Z,14.33
2023-03-02T17:15:16.302Z,14.40
2023-03-02T17:17:43.315Z,14.23
2023-03-02T17:20:13.280Z,14.00
2023-03-02T17:22:40.204Z,14.73
2023-03-02T17:25:08.926Z,13.53
2023-03-02T17:27:37.266Z,15.07
2023-03-02T17:30:05.837Z,14.03
2023-03-02T17:32:32.934Z,13.10
2023-03-02T17:34:59.990Z,13.80
2023-03-02T17:37:28.253Z,13.57
2023-03-02T17:39:55.354Z,14.13
2023-03-02T17:42:22.735Z,14.83
2023-03-02T17:44:51.183Z,16.60
2023-03-02T17:47:19.086Z,15.60
2023-03-02T17:49:46.119Z,13.23
2023-03-02T17:52:15.420Z,15.37
2023-03-02T17:54:43.763Z,13.10
2023-03-02T17:57:12.187Z,13.57
2023-03-02T17:59:39.226Z,13.90
2023-03-02T18:02:08.070Z,14.30
2023-03-02T18:04:35.120Z,13.93
2023-03-02T18:07:06.754Z,12.80
2023-03-02T18:09:34.034Z,15.40
2023-03-02T18:12:02.477Z,13.73
2023-03-02T18:14:30.641Z,14.83
2023-03-02T18:16:58.118Z,13.30
2023-03-02T18:19:26.433Z,13.27
2023-03-02T18:21:53.990Z,12.50
2023-03-02T18:24:21.071Z,13.90
2023-03-02T18:26:48.002Z,12.50
2023-03-02T18:29:15.419Z,11.47
2023-03-02T18:31:42.458Z,12.03
2023-03-02T18:34:09.859Z,12.60
2023-03-02T18:36:38.148Z,12.50
2023-03-02T18:39:05.180Z,12.50
2023-03-02T18:41:32.505Z,12.27
2023-03-02T18:44:01.242Z,11.67
2023-03-02T18:46:30.690Z,11.63
2023-03-02T18:49:00.485Z,11.57
2023-03-02T18:51:28.405Z,12.30
2023-03-02T18:53:57.241Z,11.77
2023-03-02T18:56:24.556Z,11.17
2023-03-02T18:58:52.471Z,11.50
2023-03-02T19:01:20.564Z,13.03
2023-03-02T19:03:49.005Z,13.53
2023-03-02T19:06:16.721Z,12.77
2023-03-02T19:08:44.126Z,12.37
2023-03-02T19:11:12.466Z,11.60
2023-03-02T19:13:39.524Z,13.60
2023-03-02T19:16:07.505Z,12.80
2023-03-02T19:18:34.565Z,13.20
2023-03-02T19:21:04.186Z,10.53
2023-03-02T19:23:31.878Z,13.93
2023-03-02T19:25:58.922Z,12.23
2023-03-02T19:28:27.525Z,11.10
2023-03-02T19:30:54.487Z,11.30
2023-03-02T19:33:24.610Z,11.63
2023-03-02T19:35:51.979Z,11.10
2023-03-02T19:38:19.216Z,9.47
2023-03-02T19:40:46.414Z,8.97
2023-03-02T19:43:13.370Z,10.27
2023-03-02T19:45:41.795Z,9.50
2023-03-02T19:48:13.428Z,9.27
2023-03-02T19:50:40.992Z,9.83
2023-03-02T19:53:09.797Z,10.47
2023-03-02T19:55:36.937Z,10.97
2023-03-02T19:58:05.099Z,11.50
2023-03-02T20:00:33.483Z,10.17
2023-03-02T20:03:02.060Z,10.50
2023-03-02T20:05:29.188Z,10.20
2023-03-02T20:07:56.305Z,10.40
2023-03-02T20:10:31.180Z,10.00
2023-03-02T20:12:59.627Z,10.40
2023-03-02T20:15:27.781Z,10.03
2023-03-02T20:17:54.888Z,9.47
2023-03-02T20:20:24.602Z,10.20
2023-03-02T20:22:51.525Z,11.17
2023-03-02T20:25:20.126Z,10.90
2023-03-02T20:27:48.989Z,10.07
2023-03-02T20:30:22.928Z,11.30
2023-03-02T20:32:50.057Z,9.13
2023-03-02T20:35:17.629Z,10.57
2023-03-02T20:37:46.861Z,10.33
2023-03-02T20:40:16.543Z,9.63
2023-03-02T20:42:44.652Z,10.83
2023-03-02T20:45:13.761Z,10.10
2023-03-02T20:47:42.461Z,8.63
2023-03-02T20:50:14.555Z,9.73
2023-03-02T20:52:41.749Z,8.83
2023-03-02T20:55:11.762Z,9.10
2023-03-02T20:57:39.717Z,9.47
2023-03-02T21:00:14.622Z,9.77
2023-03-02T21:02:42.372Z,9.90
2023-03-02T21:05:09.829Z,10.07
2023-03-02T21:07:36.875Z,10.70
2023-03-02T21:10:07.895Z,9.70
2023-03-02T21:12:36.328Z,9.90
2023-03-02T21:15:04.529Z,10.00
2023-03-02T21:17:31.448Z,9.70
2023-03-02T21:19:58.932Z,9.60
2023-03-02T21:22:25.845Z,9.27
2023-03-02T21:24:53.003Z,10.03
2023-03-02T21:27:20.993Z,11.03
2023-03-02T21:29:49.508Z,11.20
2023-03-02T21:32:16.641Z,9.97
2023-03-02T21:34:44.829Z,10.33
2023-03-02T21:37:12.200Z,8.97
2023-03-02T21:39:39.219Z,10.27
2023-03-02T21:42:06.197Z,9.83
2023-03-02T21:44:33.109Z,10.47
2023-03-02T21:47:01.321Z,11.43
2023-03-02T21:49:28.392Z,10.53
2023-03-02T21:51:55.381Z,10.70
2023-03-02T21:54:22.460Z,10.10
2023-03-02T21:56:49.471Z,11.00
2023-03-02T21:59:16.734Z,11.23
2023-03-02T22:01:43.937Z,9.97
2023-03-02T22:04:12.327Z,10.50
2023-03-02T22:06:39.267Z,10.87
2023-03-02T22:09:06.182Z,10.83
2023-03-02T22:11:36.245Z,11.20
2023-03-02T22:14:12.206Z,11.80
2023-03-02T22:16:41.697Z,10.17
2023-03-02T22:19:25.512Z,11.97
2023-03-02T22:21:55.239Z,9.43
2023-03-02T22:24:24.977Z,10.10
2023-03-02T22:27:00.574Z,10.40
2023-03-02T22:29:30.048Z,11.40
2023-03-02T22:32:15.494Z,11.30
2023-03-02T22:34:45.984Z,11.57
2023-03-02T22:37:17.496Z,11.17
2023-03-02T22:39:45.982Z,11.47
2023-03-02T22:42:16.969Z,11.40
2023-03-02T22:44:47.419Z,10.70
2023-03-02T22:47:18.359Z,10.30
2023-03-02T22:49:50.598Z,11.63
2023-03-02T22:52:24.062Z,10.73
2023-03-02T22:54:51.616Z,10.80
2023-03-02T22:57:31.123Z,11.07
2023-03-02T23:00:30.555Z,11.63
2023-03-02T23:02:57.618Z,11.30
2023-03-02T23:05:30.136Z,10.57
2023-03-02T23:08:17.110Z,11.67
2023-03-02T23:10:44.638Z,10.57
2023-03-02T23:13:13.703Z,13.70
2023-03-02T23:15:41.510Z,11.70
2023-03-02T23:18:18.528Z,11.70
2023-03-02T23:20:47.104Z,12.37
2023-03-02T23:23:14.024Z,12.10
2023-03-02T23:25:41.334Z,12.57
2023-03-02T23:28:08.346Z,12.23
2023-03-02T23:30:35.263Z,11.67
2023-03-02T23:33:02.299Z,12.00
2023-03-02T23:35:29.203Z,11.90
2023-03-02T23:37:58.525Z,12.77
2023-03-02T23:40:25.468Z,13.17
2023-03-02T23:42:52.372Z,11.83
2023-03-02T23:45:19.439Z,12.13
2023-03-02T23:47:46.364Z,12.67
2023-03-02T23:50:13.473Z,12.60
2023-03-02T23:52:41.230Z,12.77
2023-03-02T23:55:11.273Z,13.30
2023-03-02T23:57:38.202Z,13.03
